createdAt,value
2018-03-07T00:02:24.663Z,21.50
2018-03-07T00:05:04.669Z,21.90
2018-03-07T00:07:43.495Z,21.80
2018-03-07T00:10:22.155Z,21.90
2018-03-07T00:13:01.735Z,21.30
2018-03-07T00:15:41.148Z,21.20
2018-03-07T00:18:19.689Z,20.50
2018-03-07T00:20:58.259Z,21.60
2018-03-07T00:23:37.733Z,22.20
2018-03-07T00:26:16.649Z,22.10
2018-03-07T00:28:54.709Z,20.70
2018-03-07T00:31:36.415Z,20.90
2018-03-07T00:34:14.921Z,21.00
2018-03-07T00:36:53.436Z,20.80
2018-03-07T00:39:32.124Z,21.30
2018-03-07T00:42:10.593Z,22.50
2018-03-07T00:44:49.835Z,20.30
2018-03-07T00:47:28.449Z,20.20
2018-03-07T00:50:07.135Z,20.20
2018-03-07T00:52:45.628Z,21.20
2018-03-07T00:55:24.071Z,20.30
2018-03-07T00:58:02.502Z,20.60
2018-03-07T01:00:42.077Z,21.10
2018-03-07T01:03:22.529Z,21.00
2018-03-07T01:05:59.933Z,20.90
2018-03-07T01:08:38.362Z,20.80
2018-03-07T01:11:16.948Z,21.30
2018-03-07T01:13:55.630Z,21.50
2018-03-07T01:16:34.204Z,21.00
2018-03-07T01:19:13.831Z,20.90
2018-03-07T01:21:52.515Z,21.00
2018-03-07T01:24:31.911Z,21.00
2018-03-07T01:27:10.327Z,21.00
2018-03-07T01:29:48.829Z,21.50
2018-03-07T01:32:27.167Z,21.20
2018-03-07T01:35:06.908Z,21.60
2018-03-07T01:37:45.488Z,21.60
2018-03-07T01:40:25.928Z,21.70
2018-03-07T01:43:04.551Z,21.60
2018-03-07T01:45:44.076Z,21.90
2018-03-07T01:48:22.430Z,22.00
2018-03-07T01:51:00.969Z,22.60
2018-03-07T01:53:40.523Z,22.70
2018-03-07T01:56:22.146Z,23.00
2018-03-07T01:59:00.755Z,23.00
2018-03-07T02:01:39.145Z,22.90
2018-03-07T02:04:17.632Z,24.90
2018-03-07T02:06:56.340Z,23.60
2018-03-07T02:09:33.714Z,23.50
2018-03-07T02:12:12.333Z,24.30
2018-03-07T02:14:51.887Z,25.10
2018-03-07T02:17:30.451Z,23.90
2018-03-07T02:20:09.644Z,23.30
2018-03-07T02:22:47.785Z,23.30
2018-03-07T02:25:28.313Z,24.00
2018-03-07T02:28:06.944Z,23.40
2018-03-07T02:30:45.471Z,23.90
2018-03-07T02:33:26.173Z,24.00
2018-03-07T02:36:04.811Z,24.30
2018-03-07T02:38:43.024Z,24.50
2018-03-07T02:41:24.773Z,25.00
2018-03-07T02:44:05.532Z,25.50
2018-03-07T02:46:45.082Z,25.90
2018-03-07T02:49:23.931Z,26.90
2018-03-07T02:52:02.471Z,26.80
2018-03-07T02:54:40.962Z,27.00
2018-03-07T02:57:19.528Z,27.10
2018-03-07T02:59:58.277Z,27.50
2018-03-07T03:02:38.106Z,27.70
2018-03-07T03:05:18.592Z,28.30
2018-03-07T03:07:57.307Z,28.20
2018-03-07T03:10:35.929Z,28.20
2018-03-07T03:13:14.570Z,28.30
2018-03-07T03:15:55.190Z,28.70
2018-03-07T03:18:33.693Z,28.70
2018-03-07T03:21:13.709Z,29.40
2018-03-07T03:23:53.478Z,29.40
2018-03-07T03:26:31.974Z,29.50
2018-03-07T03:29:10.550Z,29.50
2018-03-07T03:31:49.066Z,29.80
2018-03-07T03:34:28.624Z,29.40
2018-03-07T03:37:12.618Z,29.60
2018-03-07T03:39:51.273Z,29.70
2018-03-07T03:42:30.747Z,29.40
2018-03-07T03:45:10.556Z,29.50
2018-03-07T03:47:48.980Z,29.20
2018-03-07T03:50:31.544Z,29.00
2018-03-07T03:53:11.541Z,28.90
2018-03-07T03:55:49.828Z,29.20
2018-03-07T03:58:28.360Z,29.20
2018-03-07T04:01:07.750Z,29.40
2018-03-07T04:03:45.912Z,29.50
2018-03-07T04:06:24.576Z,29.10
2018-03-07T04:09:02.484Z,29.50
2018-03-07T04:11:42.030Z,30.00
2018-03-07T04:14:20.557Z,29.90
2018-03-07T04:16:58.976Z,29.70
2018-03-07T04:19:38.450Z,30.50
2018-03-07T04:22:17.276Z,30.00
2018-03-07T04:24:57.702Z,30.00
2018-03-07T04:27:37.404Z,30.20
2018-03-07T04:30:15.935Z,30.30
2018-03-07T04:32:54.505Z,30.00
2018-03-07T04:35:34.337Z,30.30
2018-03-07T04:38:12.338Z,30.00
2018-03-07T04:40:51.793Z,29.80
2018-03-07T04:43:33.361Z,30.00
2018-03-07T04:46:15.822Z,29.90
2018-03-07T04:48:55.211Z,29.90
2018-03-07T04:54:22.408Z,30.10
2018-03-07T04:57:00.867Z,29.70
2018-03-07T04:59:40.401Z,30.00
2018-03-07T05:02:18.758Z,29.60
2018-03-07T05:05:00.209Z,29.60
2018-03-07T05:07:38.644Z,29.70
2018-03-07T05:10:17.351Z,29.60
2018-03-07T05:12:55.807Z,29.60
2018-03-07T05:15:40.601Z,29.60
2018-03-07T05:18:22.307Z,29.50
2018-03-07T05:21:00.916Z,29.70
2018-03-07T05:23:40.438Z,29.80
2018-03-07T05:26:19.014Z,30.30
2018-03-07T05:28:57.543Z,30.30
2018-03-07T05:31:37.358Z,30.20
2018-03-07T05:34:17.000Z,30.20
2018-03-07T05:36:57.341Z,30.20
2018-03-07T05:39:37.267Z,30.10
2018-03-07T05:42:15.829Z,30.10
2018-03-07T05:44:54.391Z,30.70
2018-03-07T05:47:35.961Z,30.00
2018-03-07T05:50:14.383Z,29.60
2018-03-07T05:52:52.816Z,29.80
2018-03-07T05:55:31.308Z,30.20
2018-03-07T05:58:10.045Z,30.00
2018-03-07T06:00:49.763Z,30.20
2018-03-07T06:03:28.189Z,29.90
2018-03-07T06:06:07.592Z,31.10
2018-03-07T06:08:45.253Z,31.00
2018-03-07T06:11:23.811Z,30.50
2018-03-07T06:14:02.466Z,30.70
2018-03-07T06:16:43.237Z,31.10
2018-03-07T06:19:24.861Z,30.80
2018-03-07T06:22:03.349Z,30.80
2018-03-07T06:24:42.782Z,31.60
2018-03-07T06:27:21.374Z,31.80
2018-03-07T06:29:59.962Z,32.00
2018-03-07T06:32:38.400Z,32.10
2018-03-07T06:35:17.003Z,32.40
2018-03-07T06:37:55.580Z,33.30
2018-03-07T06:40:34.031Z,33.60
2018-03-07T06:43:12.446Z,34.60
2018-03-07T06:45:51.082Z,35.00
2018-03-07T06:48:29.636Z,36.20
2018-03-07T06:51:09.028Z,35.80
2018-03-07T06:53:48.637Z,36.10
2018-03-07T06:56:29.159Z,36.60
2018-03-07T06:59:09.679Z,36.60
2018-03-07T07:01:48.254Z,37.00
2018-03-07T07:04:26.633Z,37.20
2018-03-07T07:07:08.413Z,38.40
2018-03-07T07:09:48.768Z,38.40
2018-03-07T07:12:27.381Z,38.60
2018-03-07T07:15:05.768Z,39.90
2018-03-07T07:17:44.261Z,40.10
2018-03-07T07:20:22.806Z,40.30
2018-03-07T07:23:02.496Z,40.40
2018-03-07T07:25:42.986Z,41.60
2018-03-07T07:28:21.319Z,41.80
2018-03-07T07:31:00.703Z,42.00
2018-03-07T07:33:41.535Z,43.30
2018-03-07T07:36:21.129Z,43.10
2018-03-07T07:38:59.416Z,44.20
2018-03-07T07:41:37.996Z,43.80
2018-03-07T07:44:17.409Z,44.20
2018-03-07T07:46:55.840Z,44.60
2018-03-07T07:49:34.258Z,44.90
2018-03-07T07:52:13.663Z,45.20
2018-03-07T07:54:52.144Z,45.80
2018-03-07T07:57:32.636Z,45.80
2018-03-07T08:00:11.250Z,45.70
2018-03-07T08:02:49.881Z,46.60
2018-03-07T08:05:28.503Z,46.70
2018-03-07T08:08:08.151Z,47.60
2018-03-07T08:10:47.913Z,46.60
2018-03-07T08:13:26.630Z,47.20
2018-03-07T08:16:04.924Z,47.70
2018-03-07T08:18:43.564Z,47.70
2018-03-07T08:21:23.055Z,49.10
2018-03-07T08:24:01.474Z,50.40
2018-03-07T08:26:41.075Z,49.40
2018-03-07T08:29:19.612Z,48.80
2018-03-07T08:31:58.156Z,48.90
2018-03-07T08:34:36.752Z,48.80
2018-03-07T08:37:16.306Z,49.30
2018-03-07T08:39:55.069Z,49.50
2018-03-07T08:42:36.898Z,49.10
2018-03-07T08:45:18.333Z,50.40
2018-03-07T08:47:57.957Z,50.30
2018-03-07T08:50:36.467Z,50.50
2018-03-07T08:53:15.055Z,50.40
2018-03-07T08:55:53.529Z,50.70
2018-03-07T08:58:32.272Z,51.10
2018-03-07T09:01:11.892Z,51.30
2018-03-07T09:03:51.468Z,50.70
2018-03-07T09:06:31.145Z,51.60
2018-03-07T09:09:09.707Z,51.40
2018-03-07T09:11:48.443Z,51.00
2018-03-07T09:14:28.012Z,53.20
2018-03-07T09:17:05.694Z,53.00
2018-03-07T09:19:44.151Z,52.60
2018-03-07T09:22:24.509Z,54.00
2018-03-07T09:25:03.372Z,53.80
2018-03-07T09:27:42.673Z,54.30
2018-03-07T09:30:21.126Z,54.00
2018-03-07T09:32:59.690Z,54.20
2018-03-07T09:35:38.118Z,54.60
2018-03-07T09:38:16.802Z,55.00
2018-03-07T09:40:56.361Z,55.40
2018-03-07T09:43:34.979Z,55.00
2018-03-07T09:46:14.419Z,56.00
2018-03-07T09:48:52.924Z,56.00
2018-03-07T09:51:31.548Z,56.50
2018-03-07T09:54:10.109Z,56.10
2018-03-07T09:56:49.704Z,56.60
2018-03-07T09:59:30.421Z,56.70
2018-03-07T10:02:11.521Z,56.40
2018-03-07T10:04:49.625Z,56.40
2018-03-07T10:07:29.031Z,56.80
2018-03-07T10:10:09.588Z,56.80
2018-03-07T10:12:47.984Z,56.80
2018-03-07T10:15:28.560Z,57.90
2018-03-07T10:18:08.893Z,57.80
2018-03-07T10:20:47.383Z,57.40
2018-03-07T10:23:28.828Z,57.40
2018-03-07T10:26:07.259Z,57.70
2018-03-07T10:28:46.024Z,57.80
2018-03-07T10:31:24.303Z,57.90
2018-03-07T10:34:02.866Z,57.80
2018-03-07T10:36:42.512Z,57.70
2018-03-07T10:39:21.234Z,57.50
2018-03-07T10:41:59.783Z,57.20
2018-03-07T10:44:38.335Z,57.60
2018-03-07T10:47:16.899Z,57.50
2018-03-07T10:49:56.517Z,58.10
2018-03-07T10:52:36.230Z,57.70
2018-03-07T10:55:13.752Z,57.80
2018-03-07T10:57:52.192Z,57.80
2018-03-07T11:00:36.737Z,57.20
2018-03-07T11:03:15.331Z,57.80
2018-03-07T11:05:56.061Z,57.50
2018-03-07T11:08:34.512Z,57.20
2018-03-07T11:11:13.372Z,57.60
2018-03-07T11:13:50.875Z,57.40
2018-03-07T11:16:29.395Z,57.20
2018-03-07T11:19:07.874Z,57.70
2018-03-07T11:21:46.427Z,57.40
2018-03-07T11:24:26.061Z,57.50
2018-03-07T11:27:04.579Z,57.70
2018-03-07T11:29:44.136Z,58.10
2018-03-07T11:32:22.629Z,58.20
2018-03-07T11:35:01.259Z,57.90
2018-03-07T11:37:39.738Z,57.80
2018-03-07T11:40:19.231Z,57.90
2018-03-07T11:42:58.903Z,58.20
2018-03-07T11:45:37.452Z,58.20
2018-03-07T11:48:16.115Z,58.80
2018-03-07T11:50:54.719Z,58.90
2018-03-07T11:53:33.102Z,59.00
2018-03-07T11:56:13.152Z,58.40
2018-03-07T11:58:51.244Z,58.30
2018-03-07T12:01:30.886Z,58.70
2018-03-07T12:04:10.286Z,58.10
2018-03-07T12:06:48.816Z,57.90
2018-03-07T12:09:27.361Z,58.20
2018-03-07T12:12:05.897Z,58.70
2018-03-07T12:14:44.419Z,58.30
2018-03-07T12:17:22.852Z,58.20
2018-03-07T12:20:02.471Z,58.50
2018-03-07T12:22:41.010Z,58.70
2018-03-07T12:25:20.581Z,59.70
2018-03-07T12:28:01.152Z,57.90
2018-03-07T12:30:41.648Z,58.10
2018-03-07T12:33:20.190Z,58.10
2018-03-07T12:35:58.863Z,58.50
2018-03-07T12:38:37.498Z,59.30
2018-03-07T12:41:15.723Z,59.30
2018-03-07T12:43:54.273Z,59.40
2018-03-07T12:46:32.638Z,59.10
2018-03-07T12:49:10.437Z,58.90
2018-03-07T12:51:48.979Z,58.90
2018-03-07T12:54:27.481Z,59.20
2018-03-07T12:57:06.063Z,59.30
2018-03-07T12:59:45.455Z,59.50
2018-03-07T13:02:24.090Z,58.90
2018-03-07T13:05:02.410Z,59.50
2018-03-07T13:07:40.876Z,59.60
2018-03-07T13:10:19.421Z,60.20
2018-03-07T13:12:58.009Z,59.80
2018-03-07T13:15:36.475Z,60.80
2018-03-07T13:18:15.854Z,61.40
2018-03-07T13:20:54.371Z,61.30
2018-03-07T13:23:32.842Z,61.50
2018-03-07T13:26:12.503Z,61.90
2018-03-07T13:28:51.148Z,61.90
2018-03-07T13:31:32.071Z,62.10
2018-03-07T13:34:10.351Z,62.60
2018-03-07T13:36:48.691Z,63.10
2018-03-07T13:39:29.296Z,63.50
2018-03-07T13:42:07.689Z,63.40
2018-03-07T13:44:47.161Z,63.00
2018-03-07T13:47:26.741Z,63.10
2018-03-07T13:50:07.050Z,63.10
2018-03-07T13:52:47.141Z,63.10
2018-03-07T13:55:25.764Z,62.70
2018-03-07T13:58:04.439Z,62.30
2018-03-07T14:00:42.859Z,63.50
2018-03-07T14:03:21.503Z,63.30
2018-03-07T14:05:59.895Z,62.80
2018-03-07T14:08:38.427Z,63.00
2018-03-07T14:11:17.683Z,63.10
2018-03-07T14:13:56.686Z,63.20
2018-03-07T14:16:35.179Z,63.00
2018-03-07T14:19:13.783Z,63.00
2018-03-07T14:21:52.396Z,63.50
2018-03-07T14:24:31.023Z,63.80
2018-03-07T14:27:09.583Z,64.30
2018-03-07T14:29:48.279Z,63.70
2018-03-07T14:32:27.851Z,63.90
2018-03-07T14:35:08.487Z,64.00
2018-03-07T14:37:47.121Z,64.40
2018-03-07T14:40:25.701Z,63.90
2018-03-07T14:43:04.633Z,63.70
2018-03-07T14:45:43.256Z,63.90
2018-03-07T14:48:21.788Z,64.20
2018-03-07T14:51:00.259Z,64.80
2018-03-07T14:53:38.722Z,64.20
2018-03-07T14:56:17.189Z,64.20
2018-03-07T14:58:55.960Z,64.20
2018-03-07T15:01:34.569Z,64.50
2018-03-07T15:04:14.148Z,64.30
2018-03-07T15:06:52.748Z,64.40
2018-03-07T15:09:32.129Z,64.30
2018-03-07T15:12:10.687Z,64.60
2018-03-07T15:14:48.319Z,66.00
2018-03-07T15:17:26.789Z,65.90
2018-03-07T15:20:05.629Z,66.80
2018-03-07T15:22:45.206Z,66.70
2018-03-07T15:25:23.828Z,66.60
2018-03-07T15:28:02.633Z,66.10
2018-03-07T15:30:42.253Z,66.70
2018-03-07T15:33:20.519Z,66.60
2018-03-07T15:35:59.154Z,66.70
2018-03-07T15:38:37.727Z,67.20
2018-03-07T15:41:18.150Z,65.40
2018-03-07T15:43:56.732Z,65.20
2018-03-07T15:46:35.367Z,64.90
2018-03-07T15:49:15.065Z,65.60
2018-03-07T15:51:54.774Z,65.40
2018-03-07T15:54:35.386Z,65.70
2018-03-07T15:57:13.887Z,65.60
2018-03-07T15:59:53.348Z,64.40
2018-03-07T16:02:31.713Z,63.70
2018-03-07T16:05:12.249Z,62.20
2018-03-07T16:07:50.856Z,62.20
2018-03-07T16:10:28.146Z,62.40
2018-03-07T16:13:07.020Z,60.90
2018-03-07T16:15:45.760Z,58.20
2018-03-07T16:18:24.628Z,57.80
2018-03-07T16:21:03.183Z,57.00
2018-03-07T16:23:40.721Z,55.00
2018-03-07T16:26:20.356Z,55.40
2018-03-07T16:28:59.050Z,51.90
2018-03-07T16:31:38.976Z,47.50
2018-03-07T16:34:18.292Z,47.30
2018-03-07T16:36:56.800Z,45.90
2018-03-07T16:39:35.702Z,43.10
2018-03-07T16:42:14.116Z,36.70
2018-03-07T16:44:51.811Z,36.30
2018-03-07T16:47:30.290Z,36.30
2018-03-07T16:50:08.755Z,38.00
2018-03-07T16:52:47.220Z,37.10
2018-03-07T16:55:25.766Z,35.20
2018-03-07T16:58:04.317Z,36.10
2018-03-07T17:00:43.952Z,37.20
2018-03-07T17:03:22.462Z,37.10
2018-03-07T17:06:04.069Z,36.00
2018-03-07T17:08:43.672Z,33.70
2018-03-07T17:11:23.189Z,32.50
2018-03-07T17:14:00.716Z,31.90
2018-03-07T17:16:41.328Z,27.40
2018-03-07T17:19:19.906Z,27.40
2018-03-07T17:21:58.464Z,25.80
2018-03-07T17:24:37.369Z,24.10
2018-03-07T17:27:15.987Z,24.10
2018-03-07T17:29:54.627Z,24.40
2018-03-07T17:32:33.140Z,24.00
2018-03-07T17:35:11.587Z,23.70
2018-03-07T17:37:51.231Z,23.10
2018-03-07T17:40:30.810Z,23.10
2018-03-07T17:43:09.586Z,21.20
2018-03-07T17:45:48.000Z,22.90
2018-03-07T17:48:28.698Z,22.80
2018-03-07T17:51:07.366Z,22.80
2018-03-07T17:53:46.650Z,24.70
2018-03-07T17:56:25.550Z,24.40
2018-03-07T17:59:04.979Z,25.50
2018-03-07T18:01:43.367Z,23.70
2018-03-07T18:04:23.032Z,22.00
2018-03-07T18:07:01.772Z,22.00
2018-03-07T18:09:40.159Z,22.90
2018-03-07T18:12:18.705Z,22.80
2018-03-07T18:14:57.964Z,22.40
2018-03-07T18:17:36.199Z,22.30
2018-03-07T18:20:14.738Z,21.10
2018-03-07T18:22:53.264Z,19.00
2018-03-07T18:25:30.975Z,20.40
2018-03-07T18:28:10.586Z,21.60
2018-03-07T18:30:50.111Z,21.50
2018-03-07T18:33:28.636Z,19.80
2018-03-07T18:36:07.103Z,22.40
2018-03-07T18:38:45.486Z,18.10
2018-03-07T18:41:24.995Z,19.10
2018-03-07T18:44:03.911Z,19.10
2018-03-07T18:46:42.183Z,18.40
2018-03-07T18:49:21.787Z,21.40
2018-03-07T18:52:04.499Z,19.20
2018-03-07T18:54:44.771Z,18.50
2018-03-07T18:57:23.823Z,16.80
2018-03-07T19:00:03.238Z,16.80
2018-03-07T19:02:42.804Z,19.40
2018-03-07T19:05:22.347Z,19.20
2018-03-07T19:08:00.971Z,18.50
2018-03-07T19:10:39.509Z,18.90
2018-03-07T19:13:19.090Z,20.10
2018-03-07T19:16:03.601Z,18.60
2018-03-07T19:18:43.290Z,18.60
2018-03-07T19:21:21.927Z,20.20
2018-03-07T19:24:00.607Z,18.30
2018-03-07T19:26:39.138Z,17.60
2018-03-07T19:29:18.108Z,17.40
2018-03-07T19:31:56.597Z,17.30
2018-03-07T19:34:36.062Z,17.80
2018-03-07T19:37:15.609Z,18.60
2018-03-07T19:39:54.410Z,18.00
2018-03-07T19:42:34.776Z,18.40
2018-03-07T19:45:13.634Z,18.00
2018-03-07T19:47:53.950Z,19.20
2018-03-07T19:50:34.397Z,19.50
2018-03-07T19:53:13.339Z,19.60
2018-03-07T19:55:51.841Z,20.60
2018-03-07T19:58:30.402Z,19.80
2018-03-07T20:01:10.195Z,20.10
2018-03-07T20:03:48.935Z,21.00
2018-03-07T20:06:30.437Z,21.90
2018-03-07T20:09:08.886Z,21.40
2018-03-07T20:11:47.320Z,20.00
2018-03-07T20:14:25.970Z,20.00
2018-03-07T20:17:04.727Z,19.00
2018-03-07T20:19:43.410Z,19.20
2018-03-07T20:22:22.023Z,18.40
2018-03-07T20:25:00.449Z,18.10
2018-03-07T20:27:38.943Z,17.80
2018-03-07T20:30:18.487Z,17.20
2018-03-07T20:32:58.127Z,17.80
2018-03-07T20:35:36.566Z,18.00
2018-03-07T20:38:15.570Z,18.00
2018-03-07T20:40:54.738Z,18.60
2018-03-07T20:43:34.314Z,18.80
2018-03-07T20:46:13.067Z,18.90
2018-03-07T20:48:51.625Z,17.80
2018-03-07T20:51:30.101Z,17.80
2018-03-07T20:54:07.735Z,18.30
2018-03-07T20:56:47.526Z,18.50
2018-03-07T20:59:26.122Z,18.60
2018-03-07T21:02:05.204Z,18.60
2018-03-07T21:04:44.245Z,18.60
2018-03-07T21:07:25.022Z,18.30
2018-03-07T21:10:03.383Z,18.10
2018-03-07T21:12:42.833Z,18.80
2018-03-07T21:15:21.360Z,18.80
2018-03-07T21:18:01.404Z,19.00
2018-03-07T21:20:40.504Z,18.40
2018-03-07T21:23:20.028Z,19.00
2018-03-07T21:25:58.474Z,19.80
2018-03-07T21:28:38.161Z,19.40
2018-03-07T21:31:16.725Z,19.40
2018-03-07T21:33:56.372Z,18.70
2018-03-07T21:36:36.926Z,18.70
2018-03-07T21:39:15.496Z,20.80
2018-03-07T21:41:55.196Z,18.70
2018-03-07T21:44:34.714Z,18.40
2018-03-07T21:47:13.246Z,18.10
2018-03-07T21:49:51.776Z,18.20
2018-03-07T21:52:30.408Z,17.80
2018-03-07T21:55:09.302Z,17.50
2018-03-07T21:57:47.516Z,17.50
2018-03-07T22:00:26.143Z,17.60
2018-03-07T22:03:04.553Z,18.30
2018-03-07T22:05:43.206Z,17.30
2018-03-07T22:08:20.634Z,16.90
2018-03-07T22:10:59.072Z,17.00
2018-03-07T22:13:38.287Z,17.60
2018-03-07T22:16:17.142Z,17.50
2018-03-07T22:18:55.748Z,17.50
2018-03-07T22:21:34.304Z,17.80
2018-03-07T22:24:12.871Z,18.30
2018-03-07T22:26:51.422Z,17.40
2018-03-07T22:29:30.052Z,18.20
2018-03-07T22:32:08.707Z,18.10
2018-03-07T22:34:48.210Z,18.20
2018-03-07T22:37:29.813Z,18.20
2018-03-07T22:40:10.343Z,18.70
2018-03-07T22:42:49.857Z,19.00
2018-03-07T22:45:30.388Z,18.60
2018-03-07T22:48:10.330Z,18.80
2018-03-07T22:50:48.720Z,18.60
2018-03-07T22:53:28.500Z,19.50
2018-03-07T22:56:07.960Z,19.70
2018-03-07T22:58:46.368Z,19.40
2018-03-07T23:01:26.790Z,19.70
2018-03-07T23:04:07.613Z,20.00
2018-03-07T23:06:50.683Z,19.50
2018-03-07T23:09:33.286Z,21.80
2018-03-07T23:12:12.230Z,21.70
2018-03-07T23:14:50.723Z,21.50
2018-03-07T23:17:27.157Z,21.10
2018-03-07T23:20:06.374Z,22.20
2018-03-07T23:22:47.154Z,21.20
2018-03-07T23:25:25.763Z,21.10
2018-03-07T23:28:04.664Z,21.10
2018-03-07T23:30:43.078Z,21.60
2018-03-07T23:33:21.677Z,21.00
2018-03-07T23:36:00.162Z,21.10
2018-03-07T23:38:39.599Z,20.10
2018-03-07T23:41:18.078Z,20.10
2018-03-07T23:43:56.550Z,20.70
2018-03-07T23:46:37.168Z,21.80
2018-03-07T23:49:16.874Z,21.40
2018-03-07T23:51:55.291Z,20.80
2018-03-07T23:54:34.794Z,20.50
2018-03-07T23:57:13.413Z,20.60
2018-03-07T23:59:52.125Z,19.80
